sensor_id;sensor_type;location;lat;lon;timestamp;P1;durP1;ratioP1;P2;durP2;ratioP2
10715;SDS011;5409;42.620;23.316;2022-10-04T00:00:45;1.50;;;1.40;;
10715;SDS011;5409;42.620;23.316;2022-10-04T00:03:16;3.97;;;2.20;;
10715;SDS011;5409;42.620;23.316;2022-10-04T00:05:47;2.60;;;1.77;;
10715;SDS011;5409;42.620;23.316;2022-10-04T00:08:21;1.88;;;1.73;;
10715;SDS011;5409;42.620;23.316;2022-10-04T00:11:00;1.90;;;1.60;;
10715;SDS011;5409;42.620;23.316;2022-10-04T00:13:29;1.70;;;1.60;;
10715;SDS011;5409;42.620;23.316;2022-10-04T00:15:58;3.10;;;1.70;;
10715;SDS011;5409;42.620;23.316;2022-10-04T00:18:27;1.35;;;1.30;;
10715;SDS011;5409;42.620;23.316;2022-10-04T00:21:00;1.77;;;1.48;;
10715;SDS011;5409;42.620;23.316;2022-10-04T00:23:29;1.92;;;1.83;;
10715;SDS011;5409;42.620;23.316;2022-10-04T00:26:09;2.13;;;1.83;;
10715;SDS011;5409;42.620;23.316;2022-10-04T00:28:41;1.70;;;1.48;;
10715;SDS011;5409;42.620;23.316;2022-10-04T00:31:21;1.65;;;1.55;;
10715;SDS011;5409;42.620;23.316;2022-10-04T00:33:50;1.58;;;1.48;;
10715;SDS011;5409;42.620;23.316;2022-10-04T00:36:38;1.80;;;1.67;;
10715;SDS011;5409;42.620;23.316;2022-10-04T00:39:17;2.05;;;1.52;;
10715;SDS011;5409;42.620;23.316;2022-10-04T00:42:07;1.58;;;1.48;;
10715;SDS011;5409;42.620;23.316;2022-10-04T00:44:55;1.85;;;1.30;;
10715;SDS011;5409;42.620;23.316;2022-10-04T00:47:27;1.40;;;1.30;;
10715;SDS011;5409;42.620;23.316;2022-10-04T00:50:00;1.98;;;1.60;;
10715;SDS011;5409;42.620;23.316;2022-10-04T00:52:39;1.30;;;1.30;;
10715;SDS011;5409;42.620;23.316;2022-10-04T00:55:09;2.47;;;1.40;;
10715;SDS011;5409;42.620;23.316;2022-10-04T00:57:49;1.70;;;1.40;;
10715;SDS011;5409;42.620;23.316;2022-10-04T01:00:20;2.65;;;1.10;;
10715;SDS011;5409;42.620;23.316;2022-10-04T01:02:50;1.55;;;1.25;;
10715;SDS011;5409;42.620;23.316;2022-10-04T01:05:22;1.35;;;1.25;;
10715;SDS011;5409;42.620;23.316;2022-10-04T01:07:53;2.30;;;1.35;;
10715;SDS011;5409;42.620;23.316;2022-10-04T01:10:24;1.25;;;1.23;;
10715;SDS011;5409;42.620;23.316;2022-10-04T01:12:55;2.60;;;1.23;;
10715;SDS011;5409;42.620;23.316;2022-10-04T01:15:29;1.65;;;1.55;;
10715;SDS011;5409;42.620;23.316;2022-10-04T01:18:11;1.60;;;1.50;;
10715;SDS011;5409;42.620;23.316;2022-10-04T01:20:47;1.50;;;1.40;;
10715;SDS011;5409;42.620;23.316;2022-10-04T01:26:07;1.42;;;1.20;;
10715;SDS011;5409;42.620;23.316;2022-10-04T01:29:06;1.67;;;1.55;;
10715;SDS011;5409;42.620;23.316;2022-10-04T01:31:36;1.80;;;1.50;;
10715;SDS011;5409;42.620;23.316;2022-10-04T01:34:04;1.50;;;1.38;;
10715;SDS011;5409;42.620;23.316;2022-10-04T01:36:32;4.40;;;1.35;;
10715;SDS011;5409;42.620;23.316;2022-10-04T01:39:01;1.00;;;1.00;;
10715;SDS011;5409;42.620;23.316;2022-10-04T01:41:31;1.50;;;1.40;;
10715;SDS011;5409;42.620;23.316;2022-10-04T01:44:06;1.55;;;1.45;;
10715;SDS011;5409;42.620;23.316;2022-10-04T01:46:38;3.33;;;1.55;;
10715;SDS011;5409;42.620;23.316;2022-10-04T01:49:06;1.58;;;1.48;;
10715;SDS011;5409;42.620;23.316;2022-10-04T01:51:38;1.13;;;1.13;;
10715;SDS011;5409;42.620;23.316;2022-10-04T01:54:16;1.70;;;1.60;;
10715;SDS011;5409;42.620;23.316;2022-10-04T01:56:48;1.40;;;1.30;;
10715;SDS011;5409;42.620;23.316;2022-10-04T01:59:24;1.45;;;0.90;;
10715;SDS011;5409;42.620;23.316;2022-10-04T02:01:54;1.77;;;1.45;;
10715;SDS011;5409;42.620;23.316;2022-10-04T02:04:26;1.48;;;1.38;;
10715;SDS011;5409;42.620;23.316;2022-10-04T02:06:55;1.40;;;1.30;;
10715;SDS011;5409;42.620;23.316;2022-10-04T02:09:27;1.42;;;1.35;;
10715;SDS011;5409;42.620;23.316;2022-10-04T02:11:58;1.33;;;1.23;;
10715;SDS011;5409;42.620;23.316;2022-10-04T02:14:26;1.42;;;1.20;;
10715;SDS011;5409;42.620;23.316;2022-10-04T02:16:57;1.23;;;1.23;;
10715;SDS011;5409;42.620;23.316;2022-10-04T02:19:27;1.60;;;1.50;;
10715;SDS011;5409;42.620;23.316;2022-10-04T02:22:00;1.50;;;1.40;;
10715;SDS011;5409;42.620;23.316;2022-10-04T02:24:31;1.67;;;1.15;;
10715;SDS011;5409;42.620;23.316;2022-10-04T02:27:00;1.48;;;1.30;;
10715;SDS011;5409;42.620;23.316;2022-10-04T02:29:27;1.30;;;1.20;;
10715;SDS011;5409;42.620;23.316;2022-10-04T02:31:54;1.35;;;1.20;;
10715;SDS011;5409;42.620;23.316;2022-10-04T02:34:39;1.52;;;1.42;;
10715;SDS011;5409;42.620;23.316;2022-10-04T02:37:06;1.58;;;1.20;;
10715;SDS011;5409;42.620;23.316;2022-10-04T02:39:36;2.53;;;1.40;;
10715;SDS011;5409;42.620;23.316;2022-10-04T02:42:08;1.30;;;1.20;;
10715;SDS011;5409;42.620;23.316;2022-10-04T02:44:40;1.65;;;1.55;;
10715;SDS011;5409;42.620;23.316;2022-10-04T02:47:11;1.60;;;1.40;;
10715;SDS011;5409;42.620;23.316;2022-10-04T02:49:43;1.35;;;1.25;;
10715;SDS011;5409;42.620;23.316;2022-10-04T02:52:12;2.20;;;1.40;;
10715;SDS011;5409;42.620;23.316;2022-10-04T02:54:50;1.48;;;1.40;;
10715;SDS011;5409;42.620;23.316;2022-10-04T02:57:25;1.27;;;1.20;;
10715;SDS011;5409;42.620;23.316;2022-10-04T02:59:59;1.65;;;1.55;;
10715;SDS011;5409;42.620;23.316;2022-10-04T03:02:35;1.60;;;1.50;;
10715;SDS011;5409;42.620;23.316;2022-10-04T03:05:03;1.58;;;1.48;;
10715;SDS011;5409;42.620;23.316;2022-10-04T03:07:33;2.25;;;1.60;;
10715;SDS011;5409;42.620;23.316;2022-10-04T03:10:03;2.58;;;1.50;;
10715;SDS011;5409;42.620;23.316;2022-10-04T03:12:33;3.70;;;1.80;;
10715;SDS011;5409;42.620;23.316;2022-10-04T03:15:03;2.13;;;1.60;;
10715;SDS011;5409;42.620;23.316;2022-10-04T03:17:33;1.63;;;1.48;;
10715;SDS011;5409;42.620;23.316;2022-10-04T03:20:00;1.50;;;1.40;;
10715;SDS011;5409;42.620;23.316;2022-10-04T03:22:28;2.85;;;1.73;;
10715;SDS011;5409;42.620;23.316;2022-10-04T03:24:55;2.22;;;1.58;;
10715;SDS011;5409;42.620;23.316;2022-10-04T03:27:25;1.70;;;1.60;;
10715;SDS011;5409;42.620;23.316;2022-10-04T03:29:57;2.10;;;1.23;;
10715;SDS011;5409;42.620;23.316;2022-10-04T03:32:26;1.40;;;1.30;;
10715;SDS011;5409;42.620;23.316;2022-10-04T03:34:56;1.45;;;1.40;;
10715;SDS011;5409;42.620;23.316;2022-10-04T03:37:25;1.10;;;1.10;;
10715;SDS011;5409;42.620;23.316;2022-10-04T03:39:54;1.38;;;1.27;;
10715;SDS011;5409;42.620;23.316;2022-10-04T03:42:23;1.20;;;1.10;;
10715;SDS011;5409;42.620;23.316;2022-10-04T03:44:54;1.50;;;1.38;;
10715;SDS011;5409;42.620;23.316;2022-10-04T03:47:25;1.08;;;1.08;;
10715;SDS011;5409;42.620;23.316;2022-10-04T03:49:54;1.10;;;1.10;;
10715;SDS011;5409;42.620;23.316;2022-10-04T03:52:24;1.60;;;1.20;;
10715;SDS011;5409;42.620;23.316;2022-10-04T03:54:55;3.55;;;1.30;;
10715;SDS011;5409;42.620;23.316;2022-10-04T03:57:26;1.10;;;1.10;;
10715;SDS011;5409;42.620;23.316;2022-10-04T03:59:54;2.08;;;1.20;;
10715;SDS011;5409;42.620;23.316;2022-10-04T04:02:26;2.13;;;1.30;;
10715;SDS011;5409;42.620;23.316;2022-10-04T04:05:00;2.85;;;1.50;;
10715;SDS011;5409;42.620;23.316;2022-10-04T04:07:34;1.50;;;1.40;;
10715;SDS011;5409;42.620;23.316;2022-10-04T04:10:08;5.00;;;1.42;;
10715;SDS011;5409;42.620;23.316;2022-10-04T04:12:45;3.42;;;1.70;;
10715;SDS011;5409;42.620;23.316;2022-10-04T04:15:17;1.70;;;1.58;;
10715;SDS011;5409;42.620;23.316;2022-10-04T04:17:44;2.03;;;1.85;;
10715;SDS011;5409;42.620;23.316;2022-10-04T04:20:18;1.73;;;1.50;;
10715;SDS011;5409;42.620;23.316;2022-10-04T04:22:52;2.65;;;1.60;;
10715;SDS011;5409;42.620;23.316;2022-10-04T04:25:27;1.52;;;1.42;;
10715;SDS011;5409;42.620;23.316;2022-10-04T04:28:00;3.33;;;1.65;;
10715;SDS011;5409;42.620;23.316;2022-10-04T04:30:32;1.60;;;1.50;;
10715;SDS011;5409;42.620;23.316;2022-10-04T04:33:05;1.63;;;1.52;;
10715;SDS011;5409;42.620;23.316;2022-10-04T04:35:35;1.73;;;1.63;;
10715;SDS011;5409;42.620;23.316;2022-10-04T04:38:04;1.80;;;1.70;;
10715;SDS011;5409;42.620;23.316;2022-10-04T04:40:31;1.75;;;1.65;;
10715;SDS011;5409;42.620;23.316;2022-10-04T04:43:00;2.13;;;1.75;;
10715;SDS011;5409;42.620;23.316;2022-10-04T04:45:28;1.80;;;1.63;;
10715;SDS011;5409;42.620;23.316;2022-10-04T04:47:57;1.75;;;1.65;;
10715;SDS011;5409;42.620;23.316;2022-10-04T04:50:28;2.17;;;2.05;;
10715;SDS011;5409;42.620;23.316;2022-10-04T04:52:57;1.60;;;1.50;;
10715;SDS011;5409;42.620;23.316;2022-10-04T04:55:29;2.63;;;1.55;;
10715;SDS011;5409;42.620;23.316;2022-10-04T04:58:02;2.65;;;1.85;;
10715;SDS011;5409;42.620;23.316;2022-10-04T05:00:31;1.80;;;1.70;;
10715;SDS011;5409;42.620;23.316;2022-10-04T05:03:03;2.60;;;1.90;;
10715;SDS011;5409;42.620;23.316;2022-10-04T05:05:32;1.77;;;1.67;;
10715;SDS011;5409;42.620;23.316;2022-10-04T05:08:04;1.83;;;1.70;;
10715;SDS011;5409;42.620;23.316;2022-10-04T05:10:39;2.05;;;1.90;;
10715;SDS011;5409;42.620;23.316;2022-10-04T05:13:09;1.65;;;1.55;;
10715;SDS011;5409;42.620;23.316;2022-10-04T05:15:38;2.20;;;2.10;;
10715;SDS011;5409;42.620;23.316;2022-10-04T05:18:13;2.33;;;2.10;;
10715;SDS011;5409;42.620;23.316;2022-10-04T05:20:49;2.05;;;1.70;;
10715;SDS011;5409;42.620;23.316;2022-10-04T05:23:18;1.65;;;1.55;;
10715;SDS011;5409;42.620;23.316;2022-10-04T05:25:45;2.75;;;1.98;;
10715;SDS011;5409;42.620;23.316;2022-10-04T05:28:15;2.60;;;1.60;;
10715;SDS011;5409;42.620;23.316;2022-10-04T05:30:47;1.67;;;1.58;;
10715;SDS011;5409;42.620;23.316;2022-10-04T05:33:23;3.78;;;1.85;;
10715;SDS011;5409;42.620;23.316;2022-10-04T05:39:14;2.20;;;2.00;;
10715;SDS011;5409;42.620;23.316;2022-10-04T05:41:50;2.38;;;1.70;;
10715;SDS011;5409;42.620;23.316;2022-10-04T05:44:24;2.08;;;1.98;;
10715;SDS011;5409;42.620;23.316;2022-10-04T05:46:53;3.60;;;1.60;;
10715;SDS011;5409;42.620;23.316;2022-10-04T05:49:22;1.83;;;1.73;;
10715;SDS011;5409;42.620;23.316;2022-10-04T05:51:52;2.38;;;2.22;;
10715;SDS011;5409;42.620;23.316;2022-10-04T05:54:21;2.08;;;1.98;;
10715;SDS011;5409;42.620;23.316;2022-10-04T05:56:59;2.10;;;2.00;;
10715;SDS011;5409;42.620;23.316;2022-10-04T06:02:36;1.60;;;1.50;;
10715;SDS011;5409;42.620;23.316;2022-10-04T06:05:20;3.88;;;1.92;;
10715;SDS011;5409;42.620;23.316;2022-10-04T06:07:53;2.42;;;1.63;;
10715;SDS011;5409;42.620;23.316;2022-10-04T06:10:37;1.80;;;1.70;;
10715;SDS011;5409;42.620;23.316;2022-10-04T06:13:14;2.63;;;1.60;;
10715;SDS011;5409;42.620;23.316;2022-10-04T06:15:57;1.95;;;1.80;;
10715;SDS011;5409;42.620;23.316;2022-10-04T06:18:43;2.55;;;1.83;;
10715;SDS011;5409;42.620;23.316;2022-10-04T06:21:24;1.67;;;1.58;;
10715;SDS011;5409;42.620;23.316;2022-10-04T06:23:55;2.90;;;1.42;;
10715;SDS011;5409;42.620;23.316;2022-10-04T06:26:27;1.60;;;1.50;;
10715;SDS011;5409;42.620;23.316;2022-10-04T06:29:01;1.90;;;1.67;;
10715;SDS011;5409;42.620;23.316;2022-10-04T06:31:45;1.75;;;1.58;;
10715;SDS011;5409;42.620;23.316;2022-10-04T06:34:29;1.80;;;1.70;;
10715;SDS011;5409;42.620;23.316;2022-10-04T06:37:28;1.67;;;1.58;;
10715;SDS011;5409;42.620;23.316;2022-10-04T06:40:15;2.75;;;1.77;;
10715;SDS011;5409;42.620;23.316;2022-10-04T06:43:10;2.15;;;1.60;;
10715;SDS011;5409;42.620;23.316;2022-10-04T06:45:52;1.67;;;1.50;;
10715;SDS011;5409;42.620;23.316;2022-10-04T06:48:44;1.67;;;1.40;;
10715;SDS011;5409;42.620;23.316;2022-10-04T06:51:39;2.42;;;1.60;;
10715;SDS011;5409;42.620;23.316;2022-10-04T06:54:21;1.85;;;1.75;;
10715;SDS011;5409;42.620;23.316;2022-10-04T06:57:13;2.58;;;1.85;;
10715;SDS011;5409;42.620;23.316;2022-10-04T07:00:07;1.70;;;1.60;;
10715;SDS011;5409;42.620;23.316;2022-10-04T07:02:39;1.60;;;1.33;;
10715;SDS011;5409;42.620;23.316;2022-10-04T07:05:14;1.80;;;1.70;;
10715;SDS011;5409;42.620;23.316;2022-10-04T07:07:54;1.52;;;1.42;;
10715;SDS011;5409;42.620;23.316;2022-10-04T07:10:32;4.15;;;1.50;;
10715;SDS011;5409;42.620;23.316;2022-10-04T07:13:04;1.90;;;1.38;;
10715;SDS011;5409;42.620;23.316;2022-10-04T07:15:42;2.33;;;2.13;;
10715;SDS011;5409;42.620;23.316;2022-10-04T07:18:13;1.75;;;1.58;;
10715;SDS011;5409;42.620;23.316;2022-10-04T07:20:48;1.60;;;1.50;;
10715;SDS011;5409;42.620;23.316;2022-10-04T07:23:20;3.13;;;1.80;;
10715;SDS011;5409;42.620;23.316;2022-10-04T07:25:51;2.20;;;1.80;;
10715;SDS011;5409;42.620;23.316;2022-10-04T07:28:24;1.65;;;1.40;;
10715;SDS011;5409;42.620;23.316;2022-10-04T07:31:13;2.67;;;1.65;;
10715;SDS011;5409;42.620;23.316;2022-10-04T07:33:51;1.55;;;1.45;;
10715;SDS011;5409;42.620;23.316;2022-10-04T07:36:25;1.92;;;1.83;;
10715;SDS011;5409;42.620;23.316;2022-10-04T07:38:55;1.55;;;1.45;;
10715;SDS011;5409;42.620;23.316;2022-10-04T07:41:27;2.05;;;1.80;;
10715;SDS011;5409;42.620;23.316;2022-10-04T07:43:57;2.67;;;1.80;;
10715;SDS011;5409;42.620;23.316;2022-10-04T07:46:36;1.85;;;1.60;;
10715;SDS011;5409;42.620;23.316;2022-10-04T07:49:12;3.85;;;1.58;;
10715;SDS011;5409;42.620;23.316;2022-10-04T07:51:43;2.10;;;1.67;;
10715;SDS011;5409;42.620;23.316;2022-10-04T07:54:21;1.90;;;1.80;;
10715;SDS011;5409;42.620;23.316;2022-10-04T07:56:56;2.75;;;1.58;;
10715;SDS011;5409;42.620;23.316;2022-10-04T07:59:31;2.22;;;1.77;;
10715;SDS011;5409;42.620;23.316;2022-10-04T08:02:11;1.60;;;1.50;;
10715;SDS011;5409;42.620;23.316;2022-10-04T08:04:49;1.90;;;1.80;;
10715;SDS011;5409;42.620;23.316;2022-10-04T08:07:35;1.83;;;1.65;;
10715;SDS011;5409;42.620;23.316;2022-10-04T08:10:14;2.10;;;1.65;;
10715;SDS011;5409;42.620;23.316;2022-10-04T08:12:51;2.38;;;1.48;;
10715;SDS011;5409;42.620;23.316;2022-10-04T08:15:27;1.50;;;1.40;;
10715;SDS011;5409;42.620;23.316;2022-10-04T08:18:00;1.35;;;1.25;;
10715;SDS011;5409;42.620;23.316;2022-10-04T08:20:37;1.73;;;1.60;;
10715;SDS011;5409;42.620;23.316;2022-10-04T08:26:26;1.50;;;1.40;;
10715;SDS011;5409;42.620;23.316;2022-10-04T08:29:08;4.03;;;1.50;;
10715;SDS011;5409;42.620;23.316;2022-10-04T08:32:04;3.80;;;1.42;;
10715;SDS011;5409;42.620;23.316;2022-10-04T08:34:44;1.55;;;1.40;;
10715;SDS011;5409;42.620;23.316;2022-10-04T08:37:27;1.30;;;1.20;;
10715;SDS011;5409;42.620;23.316;2022-10-04T08:40:16;1.40;;;1.30;;
10715;SDS011;5409;42.620;23.316;2022-10-04T08:43:15;3.83;;;1.30;;
10715;SDS011;5409;42.620;23.316;2022-10-04T08:46:10;1.52;;;1.42;;
10715;SDS011;5409;42.620;23.316;2022-10-04T08:48:58;1.48;;;1.38;;
10715;SDS011;5409;42.620;23.316;2022-10-04T08:51:49;1.85;;;1.55;;
10715;SDS011;5409;42.620;23.316;2022-10-04T08:57:46;1.27;;;1.17;;
10715;SDS011;5409;42.620;23.316;2022-10-04T09:06:52;5.28;;;1.52;;
10715;SDS011;5409;42.620;23.316;2022-10-04T09:12:52;1.30;;;1.20;;
10715;SDS011;5409;42.620;23.316;2022-10-04T09:15:32;2.38;;;1.30;;
10715;SDS011;5409;42.620;23.316;2022-10-04T09:20:59;1.38;;;1.08;;
10715;SDS011;5409;42.620;23.316;2022-10-04T09:23:42;5.47;;;1.65;;
10715;SDS011;5409;42.620;23.316;2022-10-04T09:26:30;1.52;;;1.42;;
10715;SDS011;5409;42.620;23.316;2022-10-04T09:29:13;2.05;;;1.10;;
10715;SDS011;5409;42.620;23.316;2022-10-04T09:34:51;1.48;;;1.20;;
10715;SDS011;5409;42.620;23.316;2022-10-04T09:37:40;1.48;;;1.38;;
10715;SDS011;5409;42.620;23.316;2022-10-04T09:40:40;1.20;;;1.10;;
10715;SDS011;5409;42.620;23.316;2022-10-04T09:46:38;4.80;;;1.20;;
10715;SDS011;5409;42.620;23.316;2022-10-04T09:49:21;1.20;;;1.10;;
10715;SDS011;5409;42.620;23.316;2022-10-04T09:52:12;1.85;;;1.30;;
10715;SDS011;5409;42.620;23.316;2022-10-04T09:55:00;1.25;;;1.15;;
10715;SDS011;5409;42.620;23.316;2022-10-04T09:57:47;1.33;;;1.23;;
10715;SDS011;5409;42.620;23.316;2022-10-04T10:00:25;1.83;;;1.35;;
10715;SDS011;5409;42.620;23.316;2022-10-04T10:06:16;3.60;;;1.45;;
10715;SDS011;5409;42.620;23.316;2022-10-04T10:08:59;2.15;;;1.10;;
10715;SDS011;5409;42.620;23.316;2022-10-04T10:11:42;1.85;;;1.20;;
10715;SDS011;5409;42.620;23.316;2022-10-04T10:17:28;1.63;;;1.50;;
10715;SDS011;5409;42.620;23.316;2022-10-04T10:20:27;1.85;;;1.15;;
10715;SDS011;5409;42.620;23.316;2022-10-04T10:23:18;2.83;;;1.30;;
10715;SDS011;5409;42.620;23.316;2022-10-04T10:29:23;1.55;;;1.25;;
10715;SDS011;5409;42.620;23.316;2022-10-04T10:32:13;1.58;;;1.13;;
10715;SDS011;5409;42.620;23.316;2022-10-04T10:38:00;2.05;;;1.23;;
10715;SDS011;5409;42.620;23.316;2022-10-04T10:40:45;1.88;;;1.50;;
10715;SDS011;5409;42.620;23.316;2022-10-04T10:43:41;1.92;;;1.63;;
10715;SDS011;5409;42.620;23.316;2022-10-04T10:46:26;3.72;;;1.52;;
10715;SDS011;5409;42.620;23.316;2022-10-04T10:49:16;1.50;;;1.40;;
10715;SDS011;5409;42.620;23.316;2022-10-04T10:51:57;1.50;;;1.40;;
10715;SDS011;5409;42.620;23.316;2022-10-04T10:55:03;1.63;;;1.42;;
10715;SDS011;5409;42.620;23.316;2022-10-04T10:57:52;1.48;;;1.38;;
10715;SDS011;5409;42.620;23.316;2022-10-04T11:00:45;2.40;;;1.40;;
10715;SDS011;5409;42.620;23.316;2022-10-04T11:09:47;1.88;;;1.75;;
10715;SDS011;5409;42.620;23.316;2022-10-04T11:12:48;2.25;;;1.60;;
10715;SDS011;5409;42.620;23.316;2022-10-04T11:18:57;1.63;;;1.55;;
10715;SDS011;5409;42.620;23.316;2022-10-04T11:21:53;1.90;;;1.80;;
10715;SDS011;5409;42.620;23.316;2022-10-04T11:27:52;3.15;;;1.70;;
10715;SDS011;5409;42.620;23.316;2022-10-04T11:30:28;3.25;;;1.88;;
10715;SDS011;5409;42.620;23.316;2022-10-04T11:36:31;2.20;;;2.00;;
10715;SDS011;5409;42.620;23.316;2022-10-04T11:42:14;2.22;;;2.03;;
10715;SDS011;5409;42.620;23.316;2022-10-04T11:48:05;3.17;;;1.80;;
10715;SDS011;5409;42.620;23.316;2022-10-04T11:50:46;2.47;;;1.80;;
10715;SDS011;5409;42.620;23.316;2022-10-04T11:56:38;2.58;;;1.88;;
10715;SDS011;5409;42.620;23.316;2022-10-04T11:59:18;2.15;;;1.90;;
10715;SDS011;5409;42.620;23.316;2022-10-04T12:08:05;3.60;;;1.83;;
10715;SDS011;5409;42.620;23.316;2022-10-04T12:10:44;2.13;;;1.92;;
10715;SDS011;5409;42.620;23.316;2022-10-04T12:13:47;3.15;;;2.28;;
10715;SDS011;5409;42.620;23.316;2022-10-04T12:16:36;4.75;;;1.90;;
10715;SDS011;5409;42.620;23.316;2022-10-04T12:19:32;1.85;;;1.75;;
10715;SDS011;5409;42.620;23.316;2022-10-04T12:31:36;1.95;;;1.85;;
10715;SDS011;5409;42.620;23.316;2022-10-04T12:34:11;1.70;;;1.60;;
10715;SDS011;5409;42.620;23.316;2022-10-04T12:36:50;1.98;;;1.83;;
10715;SDS011;5409;42.620;23.316;2022-10-04T12:39:45;1.70;;;1.60;;
10715;SDS011;5409;42.620;23.316;2022-10-04T12:42:22;2.95;;;1.90;;
10715;SDS011;5409;42.620;23.316;2022-10-04T12:45:01;3.25;;;1.83;;
10715;SDS011;5409;42.620;23.316;2022-10-04T12:47:49;1.67;;;1.58;;
10715;SDS011;5409;42.620;23.316;2022-10-04T12:50:27;1.80;;;1.70;;
10715;SDS011;5409;42.620;23.316;2022-10-04T12:53:02;2.28;;;1.90;;
10715;SDS011;5409;42.620;23.316;2022-10-04T12:58:43;1.77;;;1.60;;
10715;SDS011;5409;42.620;23.316;2022-10-04T13:01:24;2.10;;;1.90;;
10715;SDS011;5409;42.620;23.316;2022-10-04T13:04:03;2.00;;;1.75;;
10715;SDS011;5409;42.620;23.316;2022-10-04T13:06:41;2.35;;;2.10;;
10715;SDS011;5409;42.620;23.316;2022-10-04T13:09:23;2.40;;;2.20;;
10715;SDS011;5409;42.620;23.316;2022-10-04T13:12:08;2.80;;;2.60;;
10715;SDS011;5409;42.620;23.316;2022-10-04T13:14:53;2.92;;;2.50;;
10715;SDS011;5409;42.620;23.316;2022-10-04T13:17:31;2.50;;;2.30;;
10715;SDS011;5409;42.620;23.316;2022-10-04T13:23:06;2.35;;;2.25;;
10715;SDS011;5409;42.620;23.316;2022-10-04T13:25:46;2.10;;;2.00;;
10715;SDS011;5409;42.620;23.316;2022-10-04T13:28:30;2.70;;;2.40;;
10715;SDS011;5409;42.620;23.316;2022-10-04T13:31:04;2.25;;;2.15;;
10715;SDS011;5409;42.620;23.316;2022-10-04T13:33:39;2.58;;;2.40;;
10715;SDS011;5409;42.620;23.316;2022-10-04T13:36:12;3.03;;;2.58;;
10715;SDS011;5409;42.620;23.316;2022-10-04T13:39:09;1.95;;;1.85;;
10715;SDS011;5409;42.620;23.316;2022-10-04T13:42:05;3.42;;;2.38;;
10715;SDS011;5409;42.620;23.316;2022-10-04T13:47:45;3.53;;;2.60;;
10715;SDS011;5409;42.620;23.316;2022-10-04T13:50:30;3.38;;;2.50;;
10715;SDS011;5409;42.620;23.316;2022-10-04T13:53:11;2.80;;;2.47;;
10715;SDS011;5409;42.620;23.316;2022-10-04T13:56:06;2.47;;;2.28;;
10715;SDS011;5409;42.620;23.316;2022-10-04T13:59:03;2.78;;;2.58;;
10715;SDS011;5409;42.620;23.316;2022-10-04T14:01:45;2.85;;;2.65;;
10715;SDS011;5409;42.620;23.316;2022-10-04T14:11:11;3.30;;;3.00;;
10715;SDS011;5409;42.620;23.316;2022-10-04T14:13:58;2.63;;;2.40;;
10715;SDS011;5409;42.620;23.316;2022-10-04T14:16:52;2.92;;;2.60;;
10715;SDS011;5409;42.620;23.316;2022-10-04T14:19:40;2.92;;;2.70;;
10715;SDS011;5409;42.620;23.316;2022-10-04T14:22:34;4.10;;;3.20;;
10715;SDS011;5409;42.620;23.316;2022-10-04T14:25:39;2.95;;;2.60;;
10715;SDS011;5409;42.620;23.316;2022-10-04T14:31:34;5.32;;;3.83;;
10715;SDS011;5409;42.620;23.316;2022-10-04T14:37:55;4.40;;;3.97;;
10715;SDS011;5409;42.620;23.316;2022-10-04T14:40:58;4.47;;;3.00;;
10715;SDS011;5409;42.620;23.316;2022-10-04T14:46:56;3.60;;;3.28;;
10715;SDS011;5409;42.620;23.316;2022-10-04T14:49:42;3.55;;;2.90;;
10715;SDS011;5409;42.620;23.316;2022-10-04T14:52:41;7.65;;;3.97;;
10715;SDS011;5409;42.620;23.316;2022-10-04T14:55:24;6.45;;;4.07;;
10715;SDS011;5409;42.620;23.316;2022-10-04T14:58:15;9.57;;;4.63;;
10715;SDS011;5409;42.620;23.316;2022-10-04T15:00:57;5.13;;;3.72;;
10715;SDS011;5409;42.620;23.316;2022-10-04T15:03:34;5.63;;;4.75;;
10715;SDS011;5409;42.620;23.316;2022-10-04T15:09:22;12.15;;;6.22;;
10715;SDS011;5409;42.620;23.316;2022-10-04T15:12:15;18.35;;;8.07;;
10715;SDS011;5409;42.620;23.316;2022-10-04T15:15:06;3.80;;;3.50;;
10715;SDS011;5409;42.620;23.316;2022-10-04T15:17:54;5.25;;;3.78;;
10715;SDS011;5409;42.620;23.316;2022-10-04T15:20:29;4.38;;;3.63;;
10715;SDS011;5409;42.620;23.316;2022-10-04T15:23:08;4.65;;;3.60;;
10715;SDS011;5409;42.620;23.316;2022-10-04T15:25:41;4.30;;;4.00;;
10715;SDS011;5409;42.620;23.316;2022-10-04T15:28:31;4.20;;;3.80;;
10715;SDS011;5409;42.620;23.316;2022-10-04T15:31:14;3.63;;;3.33;;
10715;SDS011;5409;42.620;23.316;2022-10-04T15:33:53;4.72;;;3.25;;
10715;SDS011;5409;42.620;23.316;2022-10-04T15:36:29;5.38;;;3.20;;
10715;SDS011;5409;42.620;23.316;2022-10-04T15:39:09;7.57;;;3.58;;
10715;SDS011;5409;42.620;23.316;2022-10-04T15:42:00;4.93;;;3.40;;
10715;SDS011;5409;42.620;23.316;2022-10-04T15:44:47;3.88;;;3.58;;
10715;SDS011;5409;42.620;23.316;2022-10-04T15:47:56;3.45;;;3.15;;
10715;SDS011;5409;42.620;23.316;2022-10-04T15:50:36;4.28;;;3.85;;
10715;SDS011;5409;42.620;23.316;2022-10-04T15:53:38;3.55;;;3.25;;
10715;SDS011;5409;42.620;23.316;2022-10-04T15:56:30;5.32;;;3.33;;
10715;SDS011;5409;42.620;23.316;2022-10-04T15:59:07;3.15;;;2.88;;
10715;SDS011;5409;42.620;23.316;2022-10-04T16:02:15;5.65;;;3.00;;
10715;SDS011;5409;42.620;23.316;2022-10-04T16:05:05;4.57;;;3.75;;
10715;SDS011;5409;42.620;23.316;2022-10-04T16:11:00;3.35;;;3.00;;
10715;SDS011;5409;42.620;23.316;2022-10-04T16:13:47;3.63;;;3.28;;
10715;SDS011;5409;42.620;23.316;2022-10-04T16:19:35;3.25;;;2.95;;
10715;SDS011;5409;42.620;23.316;2022-10-04T16:22:14;2.88;;;2.63;;
10715;SDS011;5409;42.620;23.316;2022-10-04T16:24:45;2.30;;;2.10;;
10715;SDS011;5409;42.620;23.316;2022-10-04T16:27:34;2.40;;;2.20;;
10715;SDS011;5409;42.620;23.316;2022-10-04T16:30:24;2.40;;;2.20;;
10715;SDS011;5409;42.620;23.316;2022-10-04T16:33:04;2.40;;;2.20;;
10715;SDS011;5409;42.620;23.316;2022-10-04T16:35:45;2.70;;;2.50;;
10715;SDS011;5409;42.620;23.316;2022-10-04T16:38:22;2.95;;;1.90;;
10715;SDS011;5409;42.620;23.316;2022-10-04T16:40:58;3.05;;;2.17;;
10715;SDS011;5409;42.620;23.316;2022-10-04T16:43:33;2.28;;;2.17;;
10715;SDS011;5409;42.620;23.316;2022-10-04T16:46:04;2.10;;;2.00;;
10715;SDS011;5409;42.620;23.316;2022-10-04T16:48:45;2.00;;;1.90;;
10715;SDS011;5409;42.620;23.316;2022-10-04T16:54:11;2.38;;;2.17;;
10715;SDS011;5409;42.620;23.316;2022-10-04T16:57:09;4.03;;;2.25;;
10715;SDS011;5409;42.620;23.316;2022-10-04T16:59:43;3.30;;;3.00;;
10715;SDS011;5409;42.620;23.316;2022-10-04T17:05:18;3.60;;;3.30;;
10715;SDS011;5409;42.620;23.316;2022-10-04T17:08:15;4.72;;;4.07;;
10715;SDS011;5409;42.620;23.316;2022-10-04T17:11:11;4.95;;;4.13;;
10715;SDS011;5409;42.620;23.316;2022-10-04T17:13:53;3.63;;;3.10;;
10715;SDS011;5409;42.620;23.316;2022-10-04T17:16:27;4.45;;;3.65;;
10715;SDS011;5409;42.620;23.316;2022-10-04T17:19:12;6.57;;;4.45;;
10715;SDS011;5409;42.620;23.316;2022-10-04T17:21:45;2.53;;;2.33;;
10715;SDS011;5409;42.620;23.316;2022-10-04T17:24:22;6.90;;;3.70;;
10715;SDS011;5409;42.620;23.316;2022-10-04T17:27:15;4.75;;;3.63;;
10715;SDS011;5409;42.620;23.316;2022-10-04T17:29:53;4.32;;;3.92;;
10715;SDS011;5409;42.620;23.316;2022-10-04T17:32:30;5.80;;;4.60;;
10715;SDS011;5409;42.620;23.316;2022-10-04T17:35:15;5.68;;;3.33;;
10715;SDS011;5409;42.620;23.316;2022-10-04T17:38:09;3.10;;;2.80;;
10715;SDS011;5409;42.620;23.316;2022-10-04T17:40:44;2.92;;;2.50;;
10715;SDS011;5409;42.620;23.316;2022-10-04T17:43:23;2.45;;;2.25;;
10715;SDS011;5409;42.620;23.316;2022-10-04T17:45:58;2.80;;;2.60;;
10715;SDS011;5409;42.620;23.316;2022-10-04T17:48:43;4.93;;;3.00;;
10715;SDS011;5409;42.620;23.316;2022-10-04T17:51:32;8.38;;;3.53;;
10715;SDS011;5409;42.620;23.316;2022-10-04T17:54:33;3.90;;;3.15;;
10715;SDS011;5409;42.620;23.316;2022-10-04T17:57:26;4.28;;;3.20;;
10715;SDS011;5409;42.620;23.316;2022-10-04T18:00:06;3.03;;;2.70;;
10715;SDS011;5409;42.620;23.316;2022-10-04T18:02:49;4.00;;;3.40;;
10715;SDS011;5409;42.620;23.316;2022-10-04T18:05:26;3.15;;;2.85;;
10715;SDS011;5409;42.620;23.316;2022-10-04T18:07:55;3.20;;;2.90;;